createdAt,value
2023-03-19T00:01:11.052Z,5.02
2023-03-19T00:03:39.346Z,5.07
2023-03-19T00:06:08.144Z,5.19
2023-03-19T00:08:37.875Z,5.10
2023-03-19T00:11:09.566Z,5.05
2023-03-19T00:13:37.779Z,5.07
2023-03-19T00:16:06.834Z,5.04
2023-03-19T00:18:35.547Z,5.18
2023-03-19T00:21:03.692Z,5.07
2023-03-19T00:23:32.001Z,5.12
2023-03-19T00:26:02.056Z,5.07
2023-03-19T00:28:30.373Z,4.85
2023-03-19T00:30:58.783Z,4.69
2023-03-19T00:33:27.623Z,4.51
2023-03-19T00:35:55.796Z,4.60
2023-03-19T00:38:24.244Z,4.78
2023-03-19T00:40:52.525Z,4.75
2023-03-19T00:43:22.116Z,4.79
2023-03-19T00:45:50.523Z,4.78
2023-03-19T00:48:18.803Z,4.80
2023-03-19T00:50:47.080Z,4.85
2023-03-19T00:53:15.240Z,4.74
2023-03-19T00:55:43.681Z,4.79
2023-03-19T01:00:59.949Z,4.83
2023-03-19T01:03:28.291Z,4.77
2023-03-19T01:05:56.599Z,4.87
2023-03-19T01:08:24.733Z,4.18
2023-03-19T01:10:52.911Z,4.93
2023-03-19T01:13:21.714Z,2.15
2023-03-19T01:15:54.139Z,4.49
2023-03-19T01:18:23.682Z,4.68
2023-03-19T01:20:51.830Z,4.71
2023-03-19T01:23:19.916Z,4.57
2023-03-19T01:25:48.374Z,4.71
2023-03-19T01:28:16.639Z,4.56
2023-03-19T01:30:44.797Z,4.34
2023-03-19T01:33:12.982Z,4.47
2023-03-19T01:35:43.483Z,4.46
2023-03-19T01:38:11.720Z,4.47
2023-03-19T01:40:46.017Z,4.49
2023-03-19T01:43:17.475Z,4.53
2023-03-19T01:45:48.574Z,4.54
2023-03-19T01:48:28.382Z,4.63
2023-03-19T01:50:58.768Z,4.40
2023-03-19T01:53:30.312Z,4.39
2023-03-19T01:56:04.347Z,4.24
2023-03-19T01:58:32.537Z,4.28
2023-03-19T02:01:00.781Z,3.91
2023-03-19T02:03:28.908Z,4.52
2023-03-19T02:06:00.385Z,4.55
2023-03-19T02:08:30.188Z,4.41
2023-03-19T02:11:00.452Z,4.37
2023-03-19T02:13:29.069Z,3.88
2023-03-19T02:15:57.376Z,4.37
2023-03-19T02:18:26.581Z,4.42
2023-03-19T02:21:01.969Z,4.27
2023-03-19T02:23:37.713Z,3.68
2023-03-19T02:26:10.245Z,4.28
2023-03-19T02:28:41.096Z,3.34
2023-03-19T02:31:10.200Z,4.26
2023-03-19T02:33:38.558Z,4.37
2023-03-19T02:36:10.716Z,3.70
2023-03-19T02:38:41.592Z,4.27
2023-03-19T02:41:12.110Z,4.01
2023-03-19T02:43:42.115Z,4.07
2023-03-19T02:46:14.096Z,4.05
2023-03-19T02:48:42.585Z,3.76
2023-03-19T02:51:10.794Z,3.63
2023-03-19T02:53:39.018Z,3.92
2023-03-19T02:56:07.734Z,4.21
2023-03-19T02:58:37.634Z,4.18
2023-03-19T03:01:06.431Z,4.03
2023-03-19T03:03:34.638Z,3.95
2023-03-19T03:06:02.807Z,3.89
2023-03-19T03:08:31.214Z,3.90
2023-03-19T03:10:59.336Z,3.83
2023-03-19T03:13:27.994Z,3.50
2023-03-19T03:15:57.624Z,3.84
2023-03-19T03:18:26.026Z,3.78
2023-03-19T03:20:54.783Z,3.64
2023-03-19T03:23:23.006Z,3.68
2023-03-19T03:25:52.217Z,3.48
2023-03-19T03:28:20.622Z,3.67
2023-03-19T03:30:49.226Z,3.65
2023-03-19T03:33:18.782Z,3.69
2023-03-19T03:35:47.135Z,3.30
2023-03-19T03:38:15.767Z,3.61
2023-03-19T03:40:44.010Z,3.69
2023-03-19T03:43:12.191Z,3.73
2023-03-19T03:45:40.372Z,3.76
2023-03-19T03:48:08.621Z,3.40
2023-03-19T03:50:38.227Z,3.77
2023-03-19T03:53:06.592Z,3.71
2023-03-19T03:55:35.231Z,3.67
2023-03-19T03:58:03.378Z,3.39
2023-03-19T04:00:31.762Z,3.46
2023-03-19T04:03:01.316Z,3.60
2023-03-19T04:05:29.630Z,3.25
2023-03-19T04:07:59.384Z,3.53
2023-03-19T04:10:27.884Z,3.64
2023-03-19T04:12:56.190Z,3.56
2023-03-19T04:15:24.690Z,3.47
2023-03-19T04:17:52.849Z,3.41
2023-03-19T04:20:22.882Z,3.43
2023-03-19T04:22:51.663Z,3.40
2023-03-19T04:25:21.476Z,3.21
2023-03-19T04:27:49.693Z,3.11
2023-03-19T04:30:18.024Z,3.21
2023-03-19T04:32:46.477Z,3.23
2023-03-19T04:35:14.814Z,2.76
2023-03-19T04:37:48.574Z,3.25
2023-03-19T04:40:18.512Z,3.27
2023-03-19T04:42:48.178Z,3.26
2023-03-19T04:45:16.448Z,3.23
2023-03-19T04:47:44.664Z,3.31
2023-03-19T04:50:12.996Z,3.24
2023-03-19T04:52:41.772Z,3.29
2023-03-19T04:55:10.527Z,3.11
2023-03-19T04:57:38.697Z,3.03
2023-03-19T05:00:10.076Z,3.02
2023-03-19T05:02:38.533Z,3.05
2023-03-19T05:05:07.325Z,2.77
2023-03-19T05:07:35.543Z,3.00
2023-03-19T05:10:03.979Z,3.16
2023-03-19T05:12:32.143Z,3.21
2023-03-19T05:15:00.387Z,2.96
2023-03-19T05:17:30.163Z,3.16
2023-03-19T05:19:58.529Z,3.14
2023-03-19T05:22:26.680Z,3.00
2023-03-19T05:24:54.795Z,3.21
2023-03-19T05:27:23.031Z,3.34
2023-03-19T05:29:51.180Z,3.46
2023-03-19T05:32:19.397Z,3.51
2023-03-19T05:34:49.510Z,3.62
2023-03-19T05:37:18.464Z,3.61
2023-03-19T05:39:46.743Z,3.86
2023-03-19T05:42:15.712Z,3.86
2023-03-19T05:44:44.036Z,3.93
2023-03-19T05:47:12.770Z,4.06
2023-03-19T05:49:41.013Z,4.15
2023-03-19T05:52:11.305Z,4.27
2023-03-19T05:54:39.468Z,4.23
2023-03-19T05:57:07.784Z,4.25
2023-03-19T05:59:36.169Z,4.30
2023-03-19T06:02:04.364Z,4.17
2023-03-19T06:04:32.536Z,4.31
2023-03-19T06:07:00.836Z,4.68
2023-03-19T06:09:30.529Z,4.84
2023-03-19T06:11:58.662Z,4.90
2023-03-19T06:14:27.170Z,5.04
2023-03-19T06:16:55.347Z,5.18
2023-03-19T06:19:23.743Z,5.29
2023-03-19T06:21:52.493Z,5.34
2023-03-19T06:24:20.744Z,5.33
2023-03-19T06:26:50.350Z,5.35
2023-03-19T06:29:18.605Z,5.51
2023-03-19T06:31:46.889Z,5.60
2023-03-19T06:34:15.153Z,5.59
2023-03-19T06:36:43.462Z,5.80
2023-03-19T06:39:11.749Z,6.01
2023-03-19T06:41:40.040Z,6.26
2023-03-19T06:44:09.643Z,6.49
2023-03-19T06:46:37.787Z,6.54
2023-03-19T06:49:05.948Z,6.83
2023-03-19T06:51:34.185Z,7.00
2023-03-19T06:54:02.349Z,6.99
2023-03-19T06:56:30.626Z,6.94
2023-03-19T06:58:58.883Z,6.94
2023-03-19T07:01:29.009Z,7.05
2023-03-19T07:03:57.439Z,7.21
2023-03-19T07:06:25.818Z,7.03
2023-03-19T07:08:53.966Z,7.36
2023-03-19T07:11:22.189Z,7.62
2023-03-19T07:13:50.418Z,7.96
2023-03-19T07:16:18.611Z,8.20
2023-03-19T07:18:48.183Z,8.04
2023-03-19T07:21:16.317Z,7.23
2023-03-19T07:23:46.983Z,8.79
2023-03-19T07:26:15.102Z,9.01
2023-03-19T07:28:43.381Z,9.28
2023-03-19T07:31:11.512Z,9.53
2023-03-19T07:33:39.779Z,9.75
2023-03-19T07:36:10.542Z,9.91
2023-03-19T07:38:38.682Z,10.07
2023-03-19T07:41:06.856Z,10.07
2023-03-19T07:43:35.066Z,10.41
2023-03-19T07:46:04.608Z,10.36
2023-03-19T07:48:33.000Z,9.94
2023-03-19T07:51:01.199Z,10.09
2023-03-19T07:53:30.822Z,10.03
2023-03-19T07:55:59.021Z,10.08
2023-03-19T07:58:27.750Z,10.15
2023-03-19T08:00:56.168Z,10.22
2023-03-19T08:03:24.397Z,10.24
2023-03-19T08:05:53.877Z,10.36
2023-03-19T08:08:22.289Z,10.36
2023-03-19T08:10:54.485Z,10.56
2023-03-19T08:13:22.826Z,10.48
2023-03-19T08:15:51.316Z,10.34
2023-03-19T08:18:19.566Z,10.44
2023-03-19T08:20:48.324Z,10.75
2023-03-19T08:23:16.903Z,10.98
2023-03-19T08:25:45.204Z,11.20
2023-03-19T08:28:14.870Z,11.31
2023-03-19T08:30:43.248Z,11.57
2023-03-19T08:33:11.569Z,11.70
2023-03-19T08:35:39.959Z,11.64
2023-03-19T08:38:08.342Z,11.66
2023-03-19T08:40:37.053Z,11.58
2023-03-19T08:43:05.454Z,11.85
2023-03-19T08:45:35.191Z,11.82
2023-03-19T08:48:04.382Z,11.99
2023-03-19T08:50:32.910Z,12.20
2023-03-19T08:53:01.286Z,12.44
2023-03-19T08:55:29.596Z,12.59
2023-03-19T08:57:57.779Z,12.60
2023-03-19T09:00:26.232Z,12.62
2023-03-19T09:02:55.944Z,12.85
2023-03-19T09:05:24.402Z,12.78
2023-03-19T09:07:53.402Z,12.94
2023-03-19T09:10:21.765Z,11.51
2023-03-19T09:12:49.945Z,13.04
2023-03-19T09:15:18.470Z,12.41
2023-03-19T09:17:46.815Z,13.03
2023-03-19T09:20:16.636Z,13.06
2023-03-19T09:22:45.294Z,13.43
2023-03-19T09:25:13.826Z,13.49
2023-03-19T09:27:42.175Z,13.55
2023-03-19T09:30:11.900Z,13.55
2023-03-19T09:32:40.181Z,13.42
2023-03-19T09:35:09.274Z,13.52
2023-03-19T09:37:38.873Z,14.10
2023-03-19T09:40:08.615Z,14.24
2023-03-19T09:42:51.408Z,14.31
2023-03-19T09:45:21.179Z,14.39
2023-03-19T09:47:53.404Z,13.98
2023-03-19T09:50:24.638Z,14.38
2023-03-19T09:53:01.973Z,14.37
2023-03-19T09:55:41.474Z,14.40
2023-03-19T09:58:16.819Z,14.44
2023-03-19T10:00:48.133Z,14.47
2023-03-19T10:03:34.408Z,14.59
2023-03-19T10:06:19.214Z,14.63
2023-03-19T10:09:03.293Z,14.72
2023-03-19T10:11:44.291Z,14.25
2023-03-19T10:14:37.110Z,14.63
2023-03-19T10:17:07.407Z,14.03
2023-03-19T10:19:43.768Z,14.28
2023-03-19T10:22:18.088Z,14.44
2023-03-19T10:24:50.014Z,14.61
2023-03-19T10:27:20.425Z,14.67
2023-03-19T10:29:48.742Z,14.91
2023-03-19T10:32:20.471Z,15.06
2023-03-19T10:34:51.113Z,15.07
2023-03-19T10:37:21.712Z,15.33
2023-03-19T10:39:53.125Z,14.69
2023-03-19T10:42:48.524Z,15.19
2023-03-19T10:45:26.239Z,15.08
2023-03-19T10:47:56.214Z,15.08
2023-03-19T10:50:31.533Z,14.96
2023-03-19T10:53:06.964Z,15.07
2023-03-19T10:55:37.166Z,14.97
2023-03-19T10:58:07.422Z,14.90
2023-03-19T11:00:36.643Z,14.93
2023-03-19T11:03:05.984Z,14.97
2023-03-19T11:05:36.080Z,14.97
2023-03-19T11:08:07.020Z,14.99
2023-03-19T11:10:37.844Z,14.85
2023-03-19T11:13:08.575Z,14.43
2023-03-19T11:15:40.367Z,14.67
2023-03-19T11:18:17.460Z,14.22
2023-03-19T11:20:51.036Z,14.84
2023-03-19T11:23:21.382Z,14.97
2023-03-19T11:25:53.159Z,14.83
2023-03-19T11:28:26.779Z,14.60
2023-03-19T11:31:03.710Z,14.83
2023-03-19T11:33:49.037Z,14.76
2023-03-19T11:36:24.235Z,14.99
2023-03-19T11:39:08.177Z,14.94
2023-03-19T11:41:54.416Z,14.89
2023-03-19T11:44:27.875Z,15.04
2023-03-19T11:47:14.915Z,15.24
2023-03-19T11:50:03.059Z,15.36
2023-03-19T11:52:41.790Z,15.20
2023-03-19T11:55:22.434Z,15.71
2023-03-19T11:58:18.224Z,15.14
2023-03-19T12:00:50.828Z,16.06
2023-03-19T12:03:46.261Z,16.37
2023-03-19T12:06:26.487Z,16.42
2023-03-19T12:09:01.180Z,16.57
2023-03-19T12:11:38.643Z,16.88
2023-03-19T12:14:27.857Z,17.03
2023-03-19T12:17:08.763Z,17.10
2023-03-19T12:19:53.077Z,17.32
2023-03-19T12:22:33.765Z,17.58
2023-03-19T12:25:20.470Z,17.73
2023-03-19T12:27:56.639Z,17.12
2023-03-19T12:30:35.721Z,17.45
2023-03-19T12:33:30.397Z,17.44
2023-03-19T12:36:00.631Z,17.59
2023-03-19T12:38:37.625Z,17.49
2023-03-19T12:41:11.093Z,17.40
2023-03-19T12:43:47.851Z,17.26
2023-03-19T12:46:24.838Z,17.79
2023-03-19T12:48:56.311Z,17.85
2023-03-19T12:51:29.456Z,17.67
2023-03-19T12:54:01.508Z,17.67
2023-03-19T12:56:36.866Z,17.53
2023-03-19T12:59:15.578Z,17.35
2023-03-19T13:01:50.431Z,17.30
2023-03-19T13:04:22.889Z,17.43
2023-03-19T13:06:56.482Z,17.15
2023-03-19T13:09:31.446Z,16.55
2023-03-19T13:12:04.464Z,17.15
2023-03-19T13:14:39.810Z,16.88
2023-03-19T13:17:21.524Z,16.94
2023-03-19T13:19:52.844Z,17.03
2023-03-19T13:22:24.025Z,17.02
2023-03-19T13:24:53.814Z,17.13
2023-03-19T13:27:25.265Z,17.17
2023-03-19T13:30:04.197Z,17.16
2023-03-19T13:32:41.493Z,17.01
2023-03-19T13:35:33.238Z,17.31
2023-03-19T13:38:03.959Z,17.30
2023-03-19T13:40:47.773Z,17.14
2023-03-19T13:43:43.253Z,17.21
2023-03-19T13:46:45.342Z,17.07
2023-03-19T13:49:30.553Z,16.99
2023-03-19T13:52:24.023Z,16.97
2023-03-19T13:54:56.788Z,16.63
2023-03-19T13:57:36.136Z,16.98
2023-03-19T14:00:53.479Z,17.07
2023-03-19T14:03:23.532Z,17.14
2023-03-19T14:05:56.459Z,17.45
2023-03-19T14:08:28.328Z,17.49
2023-03-19T14:10:59.255Z,17.31
2023-03-19T14:13:35.357Z,17.40
2023-03-19T14:16:13.365Z,17.44
2023-03-19T14:18:44.244Z,17.48
2023-03-19T14:21:21.858Z,17.48
2023-03-19T14:23:57.817Z,17.51
2023-03-19T14:26:29.543Z,17.56
2023-03-19T14:29:02.170Z,17.60
2023-03-19T14:31:35.226Z,17.52
2023-03-19T14:34:21.106Z,17.41
2023-03-19T14:36:58.410Z,17.33
2023-03-19T14:39:29.352Z,17.20
2023-03-19T14:42:07.320Z,17.21
2023-03-19T14:45:19.590Z,17.24
2023-03-19T14:48:08.885Z,17.08
2023-03-19T14:51:06.585Z,16.98
2023-03-19T14:53:42.448Z,16.79
2023-03-19T14:56:16.486Z,15.95
2023-03-19T14:58:52.116Z,16.46
2023-03-19T15:01:21.655Z,16.45
2023-03-19T15:03:55.215Z,16.35
2023-03-19T15:06:23.877Z,16.13
2023-03-19T15:08:53.666Z,16.26
2023-03-19T15:11:44.552Z,16.33
2023-03-19T15:14:30.616Z,16.22
2023-03-19T15:17:07.805Z,15.84
2023-03-19T15:19:37.703Z,15.99
2023-03-19T15:22:06.863Z,15.69
2023-03-19T15:24:36.826Z,15.94
2023-03-19T15:27:19.049Z,15.91
2023-03-19T15:29:51.532Z,15.84
2023-03-19T15:32:51.750Z,15.84
2023-03-19T15:35:24.064Z,15.74
2023-03-19T15:37:55.475Z,15.66
2023-03-19T15:40:30.321Z,15.61
2023-03-19T15:43:01.378Z,15.48
2023-03-19T15:45:32.430Z,15.46
2023-03-19T15:48:05.220Z,15.51
2023-03-19T15:50:36.941Z,15.46
2023-03-19T15:53:11.085Z,15.44
2023-03-19T15:55:41.056Z,15.37
2023-03-19T15:58:13.281Z,15.33
2023-03-19T16:00:42.561Z,15.33
2023-03-19T16:03:19.147Z,15.30
2023-03-19T16:05:52.286Z,15.26
2023-03-19T16:08:25.954Z,15.18
2023-03-19T16:10:55.624Z,15.07
2023-03-19T16:13:32.299Z,15.08
2023-03-19T16:16:08.155Z,15.13
2023-03-19T16:18:45.742Z,15.06
2023-03-19T16:21:17.751Z,15.01
2023-03-19T16:23:51.574Z,14.94
2023-03-19T16:26:26.728Z,14.84
2023-03-19T16:29:06.278Z,14.80
2023-03-19T16:31:44.346Z,14.73
2023-03-19T16:34:38.622Z,14.68
2023-03-19T16:37:28.813Z,14.49
2023-03-19T16:39:58.468Z,14.51
2023-03-19T16:42:39.087Z,14.53
2023-03-19T16:45:26.476Z,14.46
2023-03-19T16:47:57.151Z,14.35
2023-03-19T16:50:30.523Z,14.49
2023-03-19T16:53:00.106Z,14.39
2023-03-19T16:55:32.277Z,14.21
2023-03-19T16:58:04.300Z,14.30
2023-03-19T17:00:34.043Z,14.36
2023-03-19T17:03:02.565Z,14.25
2023-03-19T17:05:31.547Z,14.10
2023-03-19T17:07:59.759Z,14.09
2023-03-19T17:10:30.342Z,14.07
2023-03-19T17:12:59.291Z,13.68
2023-03-19T17:15:33.934Z,13.94
2023-03-19T17:18:04.701Z,13.87
2023-03-19T17:20:35.320Z,13.56
2023-03-19T17:23:10.824Z,13.81
2023-03-19T17:25:39.304Z,13.77
2023-03-19T17:28:07.645Z,13.67
2023-03-19T17:30:39.132Z,13.57
2023-03-19T17:33:07.434Z,13.58
2023-03-19T17:35:35.825Z,13.26
2023-03-19T17:38:04.107Z,13.25
2023-03-19T17:40:32.669Z,13.28
2023-03-19T17:43:01.271Z,13.32
2023-03-19T17:45:30.524Z,12.66
2023-03-19T17:48:00.190Z,13.06
2023-03-19T17:50:37.998Z,13.06
2023-03-19T17:53:11.873Z,12.62
2023-03-19T17:55:40.872Z,13.06
2023-03-19T17:58:17.065Z,13.09
2023-03-19T18:00:45.738Z,12.91
2023-03-19T18:03:19.470Z,12.68
2023-03-19T18:05:50.450Z,12.90
2023-03-19T18:08:25.490Z,12.80
2023-03-19T18:10:54.780Z,12.58
2023-03-19T18:13:23.129Z,12.76
2023-03-19T18:15:51.309Z,12.67
2023-03-19T18:18:23.088Z,12.77
2023-03-19T18:20:51.970Z,12.75
2023-03-19T18:23:22.415Z,12.66
2023-03-19T18:25:51.845Z,12.68
2023-03-19T18:28:37.150Z,12.60
2023-03-19T18:31:06.614Z,12.48
2023-03-19T18:33:36.956Z,12.53
2023-03-19T18:36:05.727Z,12.17
2023-03-19T18:38:34.210Z,12.20
2023-03-19T18:41:03.190Z,12.13
2023-03-19T18:43:31.771Z,12.17
2023-03-19T18:46:00.861Z,12.20
2023-03-19T18:48:32.508Z,11.53
2023-03-19T18:51:02.323Z,11.55
2023-03-19T18:53:30.828Z,12.25
2023-03-19T18:56:02.332Z,12.22
2023-03-19T18:58:30.974Z,11.68
2023-03-19T19:01:01.643Z,11.96
2023-03-19T19:03:31.814Z,12.15
2023-03-19T19:06:01.550Z,12.14
2023-03-19T19:08:30.072Z,12.18
2023-03-19T19:11:03.523Z,12.09
2023-03-19T19:13:46.308Z,12.05
2023-03-19T19:16:25.262Z,12.01
2023-03-19T19:18:53.983Z,11.75
2023-03-19T19:21:23.666Z,11.93
2023-03-19T19:23:51.937Z,11.80
2023-03-19T19:26:23.420Z,11.77
2023-03-19T19:28:52.560Z,11.67
2023-03-19T19:31:25.815Z,11.73
2023-03-19T19:33:54.561Z,11.60
2023-03-19T19:36:25.805Z,11.47
2023-03-19T19:38:54.002Z,11.56
2023-03-19T19:41:24.683Z,11.55
2023-03-19T19:43:57.412Z,11.52
2023-03-19T19:46:25.943Z,11.34
2023-03-19T19:48:54.087Z,11.51
2023-03-19T19:51:24.856Z,11.53
2023-03-19T19:53:54.452Z,11.47
2023-03-19T19:56:24.712Z,11.32
2023-03-19T19:58:55.735Z,11.39
2023-03-19T20:01:25.414Z,11.14
2023-03-19T20:03:54.527Z,11.32
2023-03-19T20:06:24.279Z,11.17
2023-03-19T20:08:53.101Z,11.15
2023-03-19T20:11:23.033Z,11.24
2023-03-19T20:13:54.644Z,11.13
2023-03-19T20:16:25.644Z,11.10
2023-03-19T20:18:55.243Z,11.05
2023-03-19T20:21:24.869Z,10.95
2023-03-19T20:23:55.623Z,11.01
2023-03-19T20:26:25.343Z,11.01
2023-03-19T20:28:54.637Z,11.02
2023-03-19T20:31:27.305Z,10.96
2023-03-19T20:33:55.605Z,10.83
2023-03-19T20:36:25.218Z,10.87
2023-03-19T20:38:53.746Z,10.66
2023-03-19T20:41:24.161Z,10.87
2023-03-19T20:43:53.270Z,10.80
2023-03-19T20:46:32.449Z,10.24
2023-03-19T20:49:01.641Z,10.46
2023-03-19T20:51:33.291Z,10.41
2023-03-19T20:54:01.968Z,10.11
2023-03-19T20:56:30.928Z,10.16
2023-03-19T20:58:59.151Z,10.09
2023-03-19T21:01:27.301Z,10.09
2023-03-19T21:03:55.532Z,10.08
2023-03-19T21:06:25.580Z,9.44
2023-03-19T21:08:59.745Z,10.03
2023-03-19T21:11:38.427Z,10.09
2023-03-19T21:14:08.003Z,9.95
2023-03-19T21:16:36.713Z,9.94
2023-03-19T21:19:05.736Z,9.91
2023-03-19T21:21:36.746Z,9.84
2023-03-19T21:24:13.820Z,9.71
2023-03-19T21:26:43.893Z,9.83
2023-03-19T21:29:17.205Z,9.78
2023-03-19T21:31:46.360Z,9.77
2023-03-19T21:34:15.867Z,9.62
2023-03-19T21:36:44.129Z,9.75
2023-03-19T21:39:13.776Z,9.70
2023-03-19T21:41:42.918Z,9.68
2023-03-19T21:44:14.797Z,9.61
2023-03-19T21:46:46.620Z,9.49
2023-03-19T21:49:16.103Z,9.41
2023-03-19T21:51:44.296Z,9.47
2023-03-19T21:54:15.888Z,9.39
2023-03-19T21:56:46.526Z,9.24
2023-03-19T21:59:16.665Z,9.21
2023-03-19T22:01:45.044Z,9.02
2023-03-19T22:04:13.307Z,9.19
2023-03-19T22:06:43.153Z,9.14
2023-03-19T22:09:11.931Z,9.15
2023-03-19T22:11:42.687Z,9.04
2023-03-19T22:14:17.952Z,9.11
2023-03-19T22:16:46.717Z,8.04
2023-03-19T22:19:16.036Z,9.13
2023-03-19T22:21:44.324Z,8.85
2023-03-19T22:24:12.854Z,8.86
2023-03-19T22:26:44.449Z,8.77
2023-03-19T22:29:17.149Z,8.47
2023-03-19T22:31:46.076Z,8.13
2023-03-19T22:34:16.692Z,8.81
2023-03-19T22:36:45.059Z,8.77
2023-03-19T22:39:13.816Z,8.52
2023-03-19T22:41:45.904Z,8.32
2023-03-19T22:44:20.771Z,8.43
2023-03-19T22:46:49.015Z,8.38
2023-03-19T22:49:18.575Z,8.41
2023-03-19T22:51:47.490Z,8.49
2023-03-19T22:54:15.769Z,8.54
2023-03-19T22:56:45.312Z,8.52
2023-03-19T22:59:13.906Z,8.48
2023-03-19T23:01:44.651Z,8.38
2023-03-19T23:04:20.071Z,8.35
2023-03-19T23:06:48.703Z,8.31
2023-03-19T23:09:19.077Z,8.31
2023-03-19T23:11:49.579Z,8.28
2023-03-19T23:14:29.189Z,8.45
2023-03-19T23:17:01.069Z,8.28
2023-03-19T23:19:31.412Z,8.04
2023-03-19T23:22:01.368Z,8.24
2023-03-19T23:24:30.671Z,8.02
2023-03-19T23:27:02.538Z,8.26
2023-03-19T23:29:32.612Z,8.29
2023-03-19T23:32:01.224Z,8.30
2023-03-19T23:34:29.742Z,8.40
2023-03-19T23:36:58.140Z,8.28
2023-03-19T23:39:26.895Z,8.43
2023-03-19T23:41:59.340Z,8.33
2023-03-19T23:44:29.729Z,8.35
2023-03-19T23:47:01.103Z,8.34
2023-03-19T23:49:30.897Z,8.32
2023-03-19T23:52:00.274Z,8.30
2023-03-19T23:54:31.903Z,8.39
2023-03-19T23:57:03.381Z,8.08
2023-03-19T23:59:35.784Z,8.24
